sensor_id;sensor_type;location;lat;lon;timestamp;temperature;humidity
8709;DHT22;4391;48.678;9.280;2024-01-10T00:02:00;-6.10;99.90
8709;DHT22;4391;48.678;9.280;2024-01-10T00:04:26;-6.10;99.90
8709;DHT22;4391;48.678;9.280;2024-01-10T00:06:53;-6.10;99.90
8709;DHT22;4391;48.678;9.280;2024-01-10T00:09:20;-6.10;99.90
8709;DHT22;4391;48.678;9.280;2024-01-10T00:11:48;-6.10;99.90
8709;DHT22;4391;48.678;9.280;2024-01-10T00:14:16;-6.10;1.00
8709;DHT22;4391;48.678;9.280;2024-01-10T00:16:43;-6.10;99.90
8709;DHT22;4391;48.678;9.280;2024-01-10T00:19:10;-6.10;99.90
8709;DHT22;4391;48.678;9.280;2024-01-10T00:21:37;-6.00;1.00
8709;DHT22;4391;48.678;9.280;2024-01-10T00:24:06;-6.00;99.90
8709;DHT22;4391;48.678;9.280;2024-01-10T00:26:33;-6.00;99.90
8709;DHT22;4391;48.678;9.280;2024-01-10T00:29:00;-6.00;99.90
8709;DHT22;4391;48.678;9.280;2024-01-10T00:31:28;-6.00;99.90
8709;DHT22;4391;48.678;9.280;2024-01-10T00:33:55;-5.90;1.00
8709;DHT22;4391;48.678;9.280;2024-01-10T00:36:22;-5.80;1.00
8709;DHT22;4391;48.678;9.280;2024-01-10T00:38:49;-5.80;1.00
8709;DHT22;4391;48.678;9.280;2024-01-10T00:41:16;-5.80;15.00
8709;DHT22;4391;48.678;9.280;2024-01-10T00:43:43;-5.80;1.00
8709;DHT22;4391;48.678;9.280;2024-01-10T00:46:10;-5.70;1.00
8709;DHT22;4391;48.678;9.280;2024-01-10T00:48:38;-5.70;99.90
8709;DHT22;4391;48.678;9.280;2024-01-10T00:51:05;-5.70;99.90
8709;DHT22;4391;48.678;9.280;2024-01-10T00:53:34;-5.60;1.00
8709;DHT22;4391;48.678;9.280;2024-01-10T00:56:00;-5.60;99.90
8709;DHT22;4391;48.678;9.280;2024-01-10T00:58:27;-5.50;99.90
8709;DHT22;4391;48.678;9.280;2024-01-10T01:00:54;-5.50;99.90
8709;DHT22;4391;48.678;9.280;2024-01-10T01:03:21;-5.40;99.90
8709;DHT22;4391;48.678;9.280;2024-01-10T01:05:49;-5.40;99.90
8709;DHT22;4391;48.678;9.280;2024-01-10T01:08:16;-5.30;99.90
8709;DHT22;4391;48.678;9.280;2024-01-10T01:10:43;-5.30;99.90
8709;DHT22;4391;48.678;9.280;2024-01-10T01:13:10;-5.20;99.90
8709;DHT22;4391;48.678;9.280;2024-01-10T01:15:37;-5.20;99.90
8709;DHT22;4391;48.678;9.280;2024-01-10T01:18:04;-5.20;1.00
8709;DHT22;4391;48.678;9.280;2024-01-10T01:20:32;-5.10;1.00
8709;DHT22;4391;48.678;9.280;2024-01-10T01:23:01;-5.00;1.00
8709;DHT22;4391;48.678;9.280;2024-01-10T01:25:27;-5.10;1.00
8709;DHT22;4391;48.678;9.280;2024-01-10T01:27:54;-5.00;99.90
8709;DHT22;4391;48.678;9.280;2024-01-10T01:30:21;-5.00;99.90
8709;DHT22;4391;48.678;9.280;2024-01-10T01:32:48;-5.00;99.90
8709;DHT22;4391;48.678;9.280;2024-01-10T01:35:15;-5.00;99.90
8709;DHT22;4391;48.678;9.280;2024-01-10T01:37:47;-5.00;99.90
8709;DHT22;4391;48.678;9.280;2024-01-10T01:40:15;-5.00;99.90
8709;DHT22;4391;48.678;9.280;2024-01-10T01:42:44;-5.00;99.90
8709;DHT22;4391;48.678;9.280;2024-01-10T01:45:11;-5.00;99.90
8709;DHT22;4391;48.678;9.280;2024-01-10T01:47:39;-5.00;99.90
8709;DHT22;4391;48.678;9.280;2024-01-10T01:50:07;-5.00;99.90
8709;DHT22;4391;48.678;9.280;2024-01-10T01:52:34;-5.10;99.90
8709;DHT22;4391;48.678;9.280;2024-01-10T01:55:01;-5.10;1.00
8709;DHT22;4391;48.678;9.280;2024-01-10T01:57:30;-5.10;1.00
8709;DHT22;4391;48.678;9.280;2024-01-10T01:59:59;-5.20;99.90
8709;DHT22;4391;48.678;9.280;2024-01-10T02:02:26;-5.20;1.00
8709;DHT22;4391;48.678;9.280;2024-01-10T02:04:54;-5.20;99.90
8709;DHT22;4391;48.678;9.280;2024-01-10T02:07:21;-5.20;99.90
8709;DHT22;4391;48.678;9.280;2024-01-10T02:09:48;-5.20;99.90
8709;DHT22;4391;48.678;9.280;2024-01-10T02:12:15;-5.30;44.10
8709;DHT22;4391;48.678;9.280;2024-01-10T02:14:48;-5.30;28.20
8709;DHT22;4391;48.678;9.280;2024-01-10T02:17:15;-5.30;85.40
8709;DHT22;4391;48.678;9.280;2024-01-10T02:19:42;-5.30;99.90
8709;DHT22;4391;48.678;9.280;2024-01-10T02:22:09;-5.30;99.90
8709;DHT22;4391;48.678;9.280;2024-01-10T02:24:36;-5.30;99.90
8709;DHT22;4391;48.678;9.280;2024-01-10T02:27:05;-5.30;1.00
8709;DHT22;4391;48.678;9.280;2024-01-10T02:29:33;-5.30;1.00
8709;DHT22;4391;48.678;9.280;2024-01-10T02:32:00;-5.30;1.00
8709;DHT22;4391;48.678;9.280;2024-01-10T02:34:29;-5.20;1.00
8709;DHT22;4391;48.678;9.280;2024-01-10T02:36:56;-5.20;1.00
8709;DHT22;4391;48.678;9.280;2024-01-10T02:39:24;-5.10;1.00
8709;DHT22;4391;48.678;9.280;2024-01-10T02:41:50;-5.10;99.90
8709;DHT22;4391;48.678;9.280;2024-01-10T02:44:19;-5.10;1.00
8709;DHT22;4391;48.678;9.280;2024-01-10T02:46:47;-5.10;99.90
8709;DHT22;4391;48.678;9.280;2024-01-10T02:49:16;-5.10;99.90
8709;DHT22;4391;48.678;9.280;2024-01-10T02:51:44;-5.10;99.90
8709;DHT22;4391;48.678;9.280;2024-01-10T02:54:11;-5.00;99.90
8709;DHT22;4391;48.678;9.280;2024-01-10T02:56:37;-4.90;99.90
8709;DHT22;4391;48.678;9.280;2024-01-10T02:59:04;-4.90;99.90
8709;DHT22;4391;48.678;9.280;2024-01-10T03:01:33;-4.90;45.80
8709;DHT22;4391;48.678;9.280;2024-01-10T03:04:00;-4.80;71.10
8709;DHT22;4391;48.678;9.280;2024-01-10T03:06:27;-4.80;99.90
8709;DHT22;4391;48.678;9.280;2024-01-10T03:08:54;-4.70;99.90
8709;DHT22;4391;48.678;9.280;2024-01-10T03:11:21;-4.70;99.90
8709;DHT22;4391;48.678;9.280;2024-01-10T03:13:52;-4.60;99.90
8709;DHT22;4391;48.678;9.280;2024-01-10T03:16:18;-4.60;99.90
8709;DHT22;4391;48.678;9.280;2024-01-10T03:18:47;-4.60;99.90
8709;DHT22;4391;48.678;9.280;2024-01-10T03:21:14;-4.60;99.90
8709;DHT22;4391;48.678;9.280;2024-01-10T03:23:41;-4.60;99.90
8709;DHT22;4391;48.678;9.280;2024-01-10T03:26:09;-4.60;99.90
8709;DHT22;4391;48.678;9.280;2024-01-10T03:28:36;-4.50;77.10
8709;DHT22;4391;48.678;9.280;2024-01-10T03:31:03;-4.50;16.30
8709;DHT22;4391;48.678;9.280;2024-01-10T03:33:30;-4.50;2.30
8709;DHT22;4391;48.678;9.280;2024-01-10T03:35:58;-4.50;1.00
8709;DHT22;4391;48.678;9.280;2024-01-10T03:38:25;-4.50;13.70
8709;DHT22;4391;48.678;9.280;2024-01-10T03:40:52;-4.40;20.30
8709;DHT22;4391;48.678;9.280;2024-01-10T03:43:19;-4.40;13.80
8709;DHT22;4391;48.678;9.280;2024-01-10T03:45:46;-4.50;21.20
8709;DHT22;4391;48.678;9.280;2024-01-10T03:48:13;-4.40;26.10
8709;DHT22;4391;48.678;9.280;2024-01-10T03:50:40;-4.50;16.40
8709;DHT22;4391;48.678;9.280;2024-01-10T03:53:08;-4.50;15.20
8709;DHT22;4391;48.678;9.280;2024-01-10T03:55:35;-4.50;22.20
8709;DHT22;4391;48.678;9.280;2024-01-10T03:58:03;-4.50;39.00
8709;DHT22;4391;48.678;9.280;2024-01-10T04:00:30;-4.50;48.80
8709;DHT22;4391;48.678;9.280;2024-01-10T04:02:57;-4.50;49.70
8709;DHT22;4391;48.678;9.280;2024-01-10T04:05:24;-4.50;54.50
8709;DHT22;4391;48.678;9.280;2024-01-10T04:07:51;-4.50;52.00
8709;DHT22;4391;48.678;9.280;2024-01-10T04:10:20;-4.50;34.20
8709;DHT22;4391;48.678;9.280;2024-01-10T04:12:46;-4.50;27.70
8709;DHT22;4391;48.678;9.280;2024-01-10T04:15:16;-4.50;56.10
8709;DHT22;4391;48.678;9.280;2024-01-10T04:17:44;-4.50;76.20
8709;DHT22;4391;48.678;9.280;2024-01-10T04:20:11;-4.50;93.40
8709;DHT22;4391;48.678;9.280;2024-01-10T04:22:37;-4.50;99.90
8709;DHT22;4391;48.678;9.280;2024-01-10T04:25:06;-4.50;99.90
8709;DHT22;4391;48.678;9.280;2024-01-10T04:27:39;-4.50;99.90
8709;DHT22;4391;48.678;9.280;2024-01-10T04:30:07;-4.50;99.90
8709;DHT22;4391;48.678;9.280;2024-01-10T04:32:33;-4.50;99.90
8709;DHT22;4391;48.678;9.280;2024-01-10T04:35:01;-4.50;99.90
8709;DHT22;4391;48.678;9.280;2024-01-10T04:37:28;-4.50;99.90
8709;DHT22;4391;48.678;9.280;2024-01-10T04:39:54;-4.50;72.00
8709;DHT22;4391;48.678;9.280;2024-01-10T04:42:24;-4.50;94.30
8709;DHT22;4391;48.678;9.280;2024-01-10T04:44:55;-4.50;69.30
8709;DHT22;4391;48.678;9.280;2024-01-10T04:47:22;-4.60;66.20
8709;DHT22;4391;48.678;9.280;2024-01-10T04:49:49;-4.60;99.90
8709;DHT22;4391;48.678;9.280;2024-01-10T04:52:16;-4.60;99.90
8709;DHT22;4391;48.678;9.280;2024-01-10T04:54:43;-4.60;99.90
8709;DHT22;4391;48.678;9.280;2024-01-10T04:57:10;-4.70;99.90
8709;DHT22;4391;48.678;9.280;2024-01-10T04:59:37;-4.70;99.90
8709;DHT22;4391;48.678;9.280;2024-01-10T05:02:05;-4.80;99.90
8709;DHT22;4391;48.678;9.280;2024-01-10T05:04:32;-4.80;99.90
8709;DHT22;4391;48.678;9.280;2024-01-10T05:06:59;-4.80;99.90
8709;DHT22;4391;48.678;9.280;2024-01-10T05:09:26;-4.90;99.90
8709;DHT22;4391;48.678;9.280;2024-01-10T05:11:53;-5.00;99.90
8709;DHT22;4391;48.678;9.280;2024-01-10T05:14:20;-5.10;99.90
8709;DHT22;4391;48.678;9.280;2024-01-10T05:16:47;-5.20;99.90
8709;DHT22;4391;48.678;9.280;2024-01-10T05:19:16;-5.20;99.90
8709;DHT22;4391;48.678;9.280;2024-01-10T05:21:43;-5.20;99.90
8709;DHT22;4391;48.678;9.280;2024-01-10T05:24:10;-5.30;99.90
8709;DHT22;4391;48.678;9.280;2024-01-10T05:26:36;-5.30;1.00
8709;DHT22;4391;48.678;9.280;2024-01-10T05:29:03;-5.40;1.00
8709;DHT22;4391;48.678;9.280;2024-01-10T05:31:30;-5.50;65.10
8709;DHT22;4391;48.678;9.280;2024-01-10T05:33:57;-5.50;99.90
8709;DHT22;4391;48.678;9.280;2024-01-10T05:36:25;-5.50;99.90
8709;DHT22;4391;48.678;9.280;2024-01-10T05:38:52;-5.50;1.00
8709;DHT22;4391;48.678;9.280;2024-01-10T05:41:19;-5.50;99.90
8709;DHT22;4391;48.678;9.280;2024-01-10T05:43:46;-5.50;1.00
8709;DHT22;4391;48.678;9.280;2024-01-10T05:46:13;-5.50;99.90
8709;DHT22;4391;48.678;9.280;2024-01-10T05:48:44;-5.40;99.90
8709;DHT22;4391;48.678;9.280;2024-01-10T05:51:12;-5.40;1.00
8709;DHT22;4391;48.678;9.280;2024-01-10T05:53:40;-5.40;99.90
8709;DHT22;4391;48.678;9.280;2024-01-10T05:56:07;-5.40;99.90
8709;DHT22;4391;48.678;9.280;2024-01-10T05:58:34;-5.30;71.10
8709;DHT22;4391;48.678;9.280;2024-01-10T06:01:01;-5.30;1.00
8709;DHT22;4391;48.678;9.280;2024-01-10T06:03:27;-5.30;1.00
8709;DHT22;4391;48.678;9.280;2024-01-10T06:05:54;-5.40;99.90
8709;DHT22;4391;48.678;9.280;2024-01-10T06:08:21;-5.40;99.90
8709;DHT22;4391;48.678;9.280;2024-01-10T06:10:52;-5.50;99.90
8709;DHT22;4391;48.678;9.280;2024-01-10T06:13:19;-5.60;99.90
8709;DHT22;4391;48.678;9.280;2024-01-10T06:15:46;-5.60;43.80
8709;DHT22;4391;48.678;9.280;2024-01-10T06:18:13;-5.60;99.90
8709;DHT22;4391;48.678;9.280;2024-01-10T06:20:40;-5.60;1.00
8709;DHT22;4391;48.678;9.280;2024-01-10T06:23:07;-5.60;1.00
8709;DHT22;4391;48.678;9.280;2024-01-10T06:25:34;-5.70;1.00
8709;DHT22;4391;48.678;9.280;2024-01-10T06:28:02;-5.80;99.90
8709;DHT22;4391;48.678;9.280;2024-01-10T06:30:30;-5.80;1.00
8709;DHT22;4391;48.678;9.280;2024-01-10T06:32:57;-5.80;1.00
8709;DHT22;4391;48.678;9.280;2024-01-10T06:35:24;-5.80;15.20
8709;DHT22;4391;48.678;9.280;2024-01-10T06:37:51;-5.80;99.90
8709;DHT22;4391;48.678;9.280;2024-01-10T06:40:18;-5.90;16.40
8709;DHT22;4391;48.678;9.280;2024-01-10T06:42:47;-5.90;99.90
8709;DHT22;4391;48.678;9.280;2024-01-10T06:45:15;-6.00;1.00
8709;DHT22;4391;48.678;9.280;2024-01-10T06:47:42;-6.10;1.00
8709;DHT22;4391;48.678;9.280;2024-01-10T06:50:10;-6.10;99.90
8709;DHT22;4391;48.678;9.280;2024-01-10T06:52:36;-6.20;99.90
8709;DHT22;4391;48.678;9.280;2024-01-10T06:55:05;-6.20;99.90
8709;DHT22;4391;48.678;9.280;2024-01-10T06:57:32;-6.30;99.90
8709;DHT22;4391;48.678;9.280;2024-01-10T06:59:59;-6.30;1.00
8709;DHT22;4391;48.678;9.280;2024-01-10T07:02:29;-6.30;1.00
8709;DHT22;4391;48.678;9.280;2024-01-10T07:04:57;-6.50;98.90
8709;DHT22;4391;48.678;9.280;2024-01-10T07:07:25;-6.40;99.90
8709;DHT22;4391;48.678;9.280;2024-01-10T07:09:52;-6.40;99.90
8709;DHT22;4391;48.678;9.280;2024-01-10T07:12:19;-6.40;99.90
8709;DHT22;4391;48.678;9.280;2024-01-10T07:14:46;-6.40;99.90
8709;DHT22;4391;48.678;9.280;2024-01-10T07:17:13;-6.20;99.90
8709;DHT22;4391;48.678;9.280;2024-01-10T07:19:42;-6.00;1.00
8709;DHT22;4391;48.678;9.280;2024-01-10T07:22:09;-5.90;99.90
8709;DHT22;4391;48.678;9.280;2024-01-10T07:24:36;-5.90;1.00
8709;DHT22;4391;48.678;9.280;2024-01-10T07:27:03;-5.90;99.90
8709;DHT22;4391;48.678;9.280;2024-01-10T07:29:32;-5.80;99.90
8709;DHT22;4391;48.678;9.280;2024-01-10T07:31:59;-5.70;99.90
8709;DHT22;4391;48.678;9.280;2024-01-10T07:34:26;-5.70;89.90
8709;DHT22;4391;48.678;9.280;2024-01-10T07:36:54;-5.70;37.70
8709;DHT22;4391;48.678;9.280;2024-01-10T07:39:21;-5.60;1.00
8709;DHT22;4391;48.678;9.280;2024-01-10T07:41:48;-5.50;99.90
8709;DHT22;4391;48.678;9.280;2024-01-10T07:44:16;-5.50;99.90
8709;DHT22;4391;48.678;9.280;2024-01-10T07:46:43;-5.50;99.90
8709;DHT22;4391;48.678;9.280;2024-01-10T07:49:10;-5.30;99.90
8709;DHT22;4391;48.678;9.280;2024-01-10T07:51:37;-5.30;99.90
8709;DHT22;4391;48.678;9.280;2024-01-10T07:54:06;-5.20;99.90
8709;DHT22;4391;48.678;9.280;2024-01-10T07:56:33;-5.30;99.90
8709;DHT22;4391;48.678;9.280;2024-01-10T07:59:00;-5.20;99.90
8709;DHT22;4391;48.678;9.280;2024-01-10T08:01:27;-5.20;99.90
8709;DHT22;4391;48.678;9.280;2024-01-10T08:03:54;-5.10;99.90
8709;DHT22;4391;48.678;9.280;2024-01-10T08:06:21;-5.00;99.90
8709;DHT22;4391;48.678;9.280;2024-01-10T08:08:48;-4.90;99.90
8709;DHT22;4391;48.678;9.280;2024-01-10T08:11:16;-4.90;2.00
8709;DHT22;4391;48.678;9.280;2024-01-10T08:13:43;-4.80;1.00
8709;DHT22;4391;48.678;9.280;2024-01-10T08:16:10;-4.70;99.90
8709;DHT22;4391;48.678;9.280;2024-01-10T08:18:37;-4.60;99.90
8709;DHT22;4391;48.678;9.280;2024-01-10T08:21:04;-4.50;99.90
8709;DHT22;4391;48.678;9.280;2024-01-10T08:23:31;-4.40;1.00
8709;DHT22;4391;48.678;9.280;2024-01-10T08:25:58;-4.30;1.00
8709;DHT22;4391;48.678;9.280;2024-01-10T08:28:27;-4.20;99.90
8709;DHT22;4391;48.678;9.280;2024-01-10T08:30:54;-4.20;99.90
8709;DHT22;4391;48.678;9.280;2024-01-10T08:33:24;-4.00;99.90
8709;DHT22;4391;48.678;9.280;2024-01-10T08:35:53;-3.90;99.90
8709;DHT22;4391;48.678;9.280;2024-01-10T08:38:24;-3.90;99.90
8709;DHT22;4391;48.678;9.280;2024-01-10T08:40:51;-3.80;99.90
8709;DHT22;4391;48.678;9.280;2024-01-10T08:43:18;-3.70;99.90
8709;DHT22;4391;48.678;9.280;2024-01-10T08:45:46;-3.60;39.40
8709;DHT22;4391;48.678;9.280;2024-01-10T08:48:13;-3.50;47.20
8709;DHT22;4391;48.678;9.280;2024-01-10T08:50:40;-3.40;23.80
8709;DHT22;4391;48.678;9.280;2024-01-10T08:53:08;-3.10;7.10
8709;DHT22;4391;48.678;9.280;2024-01-10T08:55:35;-2.90;1.00
8709;DHT22;4391;48.678;9.280;2024-01-10T08:58:02;-2.70;1.00
8709;DHT22;4391;48.678;9.280;2024-01-10T09:00:30;-2.40;1.00
8709;DHT22;4391;48.678;9.280;2024-01-10T09:02:58;-2.20;1.00
8709;DHT22;4391;48.678;9.280;2024-01-10T09:05:25;-2.10;1.00
8709;DHT22;4391;48.678;9.280;2024-01-10T09:07:52;-1.80;1.00
8709;DHT22;4391;48.678;9.280;2024-01-10T09:10:19;-1.80;1.00
8709;DHT22;4391;48.678;9.280;2024-01-10T09:12:47;-1.60;1.00
8709;DHT22;4391;48.678;9.280;2024-01-10T09:15:14;-1.50;1.00
8709;DHT22;4391;48.678;9.280;2024-01-10T09:17:45;-1.50;1.00
8709;DHT22;4391;48.678;9.280;2024-01-10T09:20:14;-1.50;1.00
8709;DHT22;4391;48.678;9.280;2024-01-10T09:22:41;-1.40;1.00
8709;DHT22;4391;48.678;9.280;2024-01-10T09:25:08;-1.50;99.90
8709;DHT22;4391;48.678;9.280;2024-01-10T09:27:39;-1.50;99.90
8709;DHT22;4391;48.678;9.280;2024-01-10T09:30:08;-1.50;99.90
8709;DHT22;4391;48.678;9.280;2024-01-10T09:32:35;-1.50;99.90
8709;DHT22;4391;48.678;9.280;2024-01-10T09:35:02;-1.50;99.90
8709;DHT22;4391;48.678;9.280;2024-01-10T09:37:30;-1.40;99.90
8709;DHT22;4391;48.678;9.280;2024-01-10T09:39:57;-1.30;99.90
8709;DHT22;4391;48.678;9.280;2024-01-10T09:42:24;-1.10;99.90
8709;DHT22;4391;48.678;9.280;2024-01-10T09:44:51;-0.90;99.90
8709;DHT22;4391;48.678;9.280;2024-01-10T09:47:20;-0.80;99.90
8709;DHT22;4391;48.678;9.280;2024-01-10T09:49:47;-0.70;99.90
8709;DHT22;4391;48.678;9.280;2024-01-10T09:52:19;-0.70;99.90
8709;DHT22;4391;48.678;9.280;2024-01-10T09:54:54;-0.70;99.90
8709;DHT22;4391;48.678;9.280;2024-01-10T09:57:21;-0.60;99.90
8709;DHT22;4391;48.678;9.280;2024-01-10T09:59:50;-0.60;99.90
8709;DHT22;4391;48.678;9.280;2024-01-10T10:02:18;-0.70;99.90
8709;DHT22;4391;48.678;9.280;2024-01-10T10:05:02;-0.70;99.90
8709;DHT22;4391;48.678;9.280;2024-01-10T10:07:29;-0.40;99.90
8709;DHT22;4391;48.678;9.280;2024-01-10T10:09:58;-0.30;99.90
8709;DHT22;4391;48.678;9.280;2024-01-10T10:12:42;-0.20;99.90
8709;DHT22;4391;48.678;9.280;2024-01-10T10:15:11;0.00;99.90
8709;DHT22;4391;48.678;9.280;2024-01-10T10:17:39;0.20;99.90
8709;DHT22;4391;48.678;9.280;2024-01-10T10:20:13;0.40;99.90
8709;DHT22;4391;48.678;9.280;2024-01-10T10:22:43;0.60;99.90
8709;DHT22;4391;48.678;9.280;2024-01-10T10:25:27;0.80;99.90
8709;DHT22;4391;48.678;9.280;2024-01-10T10:27:55;0.80;99.90
8709;DHT22;4391;48.678;9.280;2024-01-10T10:30:22;1.20;99.90
8709;DHT22;4391;48.678;9.280;2024-01-10T10:32:52;1.40;99.90
8709;DHT22;4391;48.678;9.280;2024-01-10T10:35:23;1.50;99.90
8709;DHT22;4391;48.678;9.280;2024-01-10T10:37:52;1.60;99.90
8709;DHT22;4391;48.678;9.280;2024-01-10T10:40:20;1.70;99.90
8709;DHT22;4391;48.678;9.280;2024-01-10T10:42:56;2.10;99.90
8709;DHT22;4391;48.678;9.280;2024-01-10T10:45:23;2.20;99.90
8709;DHT22;4391;48.678;9.280;2024-01-10T10:47:57;2.00;99.90
8709;DHT22;4391;48.678;9.280;2024-01-10T10:50:28;2.00;99.90
8709;DHT22;4391;48.678;9.280;2024-01-10T10:52:59;2.10;99.90
8709;DHT22;4391;48.678;9.280;2024-01-10T10:55:29;2.20;99.90
8709;DHT22;4391;48.678;9.280;2024-01-10T10:57:58;2.10;99.90
8709;DHT22;4391;48.678;9.280;2024-01-10T11:00:28;2.50;99.90
8709;DHT22;4391;48.678;9.280;2024-01-10T11:02:55;2.70;99.90
8709;DHT22;4391;48.678;9.280;2024-01-10T11:05:23;2.70;99.90
8709;DHT22;4391;48.678;9.280;2024-01-10T11:07:51;3.00;99.90
8709;DHT22;4391;48.678;9.280;2024-01-10T11:10:27;3.20;99.90
8709;DHT22;4391;48.678;9.280;2024-01-10T11:13:08;3.30;99.90
8709;DHT22;4391;48.678;9.280;2024-01-10T11:19:00;4.10;99.90
8709;DHT22;4391;48.678;9.280;2024-01-10T11:21:39;4.60;99.90
8709;DHT22;4391;48.678;9.280;2024-01-10T11:24:13;5.20;99.90
8709;DHT22;4391;48.678;9.280;2024-01-10T11:26:40;5.50;99.90
8709;DHT22;4391;48.678;9.280;2024-01-10T11:29:09;6.00;99.90
8709;DHT22;4391;48.678;9.280;2024-01-10T11:31:38;6.30;99.90
8709;DHT22;4391;48.678;9.280;2024-01-10T11:34:05;6.30;99.90
8709;DHT22;4391;48.678;9.280;2024-01-10T11:36:32;6.10;99.90
8709;DHT22;4391;48.678;9.280;2024-01-10T11:39:02;6.40;99.90
8709;DHT22;4391;48.678;9.280;2024-01-10T11:41:32;6.50;99.90
8709;DHT22;4391;48.678;9.280;2024-01-10T11:44:29;6.50;99.90
8709;DHT22;4391;48.678;9.280;2024-01-10T11:46:58;6.60;99.90
8709;DHT22;4391;48.678;9.280;2024-01-10T11:49:25;6.70;99.90
8709;DHT22;4391;48.678;9.280;2024-01-10T11:51:54;6.80;99.90
8709;DHT22;4391;48.678;9.280;2024-01-10T11:54:38;6.90;99.90
8709;DHT22;4391;48.678;9.280;2024-01-10T11:57:12;6.80;99.90
8709;DHT22;4391;48.678;9.280;2024-01-10T11:59:42;7.00;99.90
8709;DHT22;4391;48.678;9.280;2024-01-10T12:02:11;7.10;99.90
8709;DHT22;4391;48.678;9.280;2024-01-10T12:04:39;7.30;99.90
8709;DHT22;4391;48.678;9.280;2024-01-10T12:07:07;8.10;99.90
8709;DHT22;4391;48.678;9.280;2024-01-10T12:09:34;8.30;99.90
8709;DHT22;4391;48.678;9.280;2024-01-10T12:12:02;8.30;99.90
8709;DHT22;4391;48.678;9.280;2024-01-10T12:14:30;8.10;99.90
8709;DHT22;4391;48.678;9.280;2024-01-10T12:16:59;8.50;99.90
8709;DHT22;4391;48.678;9.280;2024-01-10T12:19:27;9.20;99.90
8709;DHT22;4391;48.678;9.280;2024-01-10T12:21:54;9.30;99.90
8709;DHT22;4391;48.678;9.280;2024-01-10T12:24:21;9.10;99.90
8709;DHT22;4391;48.678;9.280;2024-01-10T12:26:49;9.40;99.90
8709;DHT22;4391;48.678;9.280;2024-01-10T12:29:18;9.40;99.90
8709;DHT22;4391;48.678;9.280;2024-01-10T12:31:46;8.90;99.90
8709;DHT22;4391;48.678;9.280;2024-01-10T12:34:15;9.20;99.90
8709;DHT22;4391;48.678;9.280;2024-01-10T12:36:42;9.40;99.90
8709;DHT22;4391;48.678;9.280;2024-01-10T12:39:09;9.50;99.90
8709;DHT22;4391;48.678;9.280;2024-01-10T12:41:36;9.30;99.90
8709;DHT22;4391;48.678;9.280;2024-01-10T12:44:04;9.90;99.90
8709;DHT22;4391;48.678;9.280;2024-01-10T12:46:32;10.60;99.90
8709;DHT22;4391;48.678;9.280;2024-01-10T12:49:00;10.90;99.90
8709;DHT22;4391;48.678;9.280;2024-01-10T12:51:29;11.00;99.90
8709;DHT22;4391;48.678;9.280;2024-01-10T12:53:57;11.20;99.90
8709;DHT22;4391;48.678;9.280;2024-01-10T12:56:26;11.20;99.90
8709;DHT22;4391;48.678;9.280;2024-01-10T12:58:53;11.50;99.90
8709;DHT22;4391;48.678;9.280;2024-01-10T13:01:22;11.80;99.90
8709;DHT22;4391;48.678;9.280;2024-01-10T13:03:49;11.90;99.90
8709;DHT22;4391;48.678;9.280;2024-01-10T13:06:17;12.10;99.90
8709;DHT22;4391;48.678;9.280;2024-01-10T13:08:47;12.20;99.90
8709;DHT22;4391;48.678;9.280;2024-01-10T13:11:15;12.10;99.90
8709;DHT22;4391;48.678;9.280;2024-01-10T13:13:42;12.20;99.90
8709;DHT22;4391;48.678;9.280;2024-01-10T13:16:09;11.90;99.90
8709;DHT22;4391;48.678;9.280;2024-01-10T13:18:38;12.10;99.90
8709;DHT22;4391;48.678;9.280;2024-01-10T13:21:05;12.00;99.90
8709;DHT22;4391;48.678;9.280;2024-01-10T13:23:35;11.70;99.90
8709;DHT22;4391;48.678;9.280;2024-01-10T13:26:04;11.90;99.90
8709;DHT22;4391;48.678;9.280;2024-01-10T13:28:31;11.90;99.90
8709;DHT22;4391;48.678;9.280;2024-01-10T13:30:58;11.90;99.90
8709;DHT22;4391;48.678;9.280;2024-01-10T13:33:26;11.80;99.90
8709;DHT22;4391;48.678;9.280;2024-01-10T13:35:53;11.70;99.90
8709;DHT22;4391;48.678;9.280;2024-01-10T13:38:21;11.00;99.90
8709;DHT22;4391;48.678;9.280;2024-01-10T13:40:50;10.50;99.90
8709;DHT22;4391;48.678;9.280;2024-01-10T13:46:44;8.10;99.90
8709;DHT22;4391;48.678;9.280;2024-01-10T13:49:11;6.40;99.90
8709;DHT22;4391;48.678;9.280;2024-01-10T13:51:38;5.60;99.90
8709;DHT22;4391;48.678;9.280;2024-01-10T13:54:05;4.80;99.90
8709;DHT22;4391;48.678;9.280;2024-01-10T13:57:00;4.30;99.90
8709;DHT22;4391;48.678;9.280;2024-01-10T13:59:27;3.60;99.90
8709;DHT22;4391;48.678;9.280;2024-01-10T14:01:56;3.30;99.90
8709;DHT22;4391;48.678;9.280;2024-01-10T14:04:24;2.80;99.90
8709;DHT22;4391;48.678;9.280;2024-01-10T14:06:51;2.60;99.90
8709;DHT22;4391;48.678;9.280;2024-01-10T14:09:18;2.30;99.90
8709;DHT22;4391;48.678;9.280;2024-01-10T14:11:46;2.10;99.90
8709;DHT22;4391;48.678;9.280;2024-01-10T14:14:14;2.00;99.90
8709;DHT22;4391;48.678;9.280;2024-01-10T14:16:41;1.90;99.90
8709;DHT22;4391;48.678;9.280;2024-01-10T14:19:10;1.80;99.90
8709;DHT22;4391;48.678;9.280;2024-01-10T14:21:37;1.70;99.90
8709;DHT22;4391;48.678;9.280;2024-01-10T14:24:05;1.50;99.90
8709;DHT22;4391;48.678;9.280;2024-01-10T14:26:32;1.40;99.90
8709;DHT22;4391;48.678;9.280;2024-01-10T14:28:59;1.30;99.90
8709;DHT22;4391;48.678;9.280;2024-01-10T14:31:26;1.20;99.90
8709;DHT22;4391;48.678;9.280;2024-01-10T14:33:53;1.20;99.90
8709;DHT22;4391;48.678;9.280;2024-01-10T14:36:21;1.00;99.90
8709;DHT22;4391;48.678;9.280;2024-01-10T14:38:48;1.00;99.90
8709;DHT22;4391;48.678;9.280;2024-01-10T14:41:16;0.90;99.90
8709;DHT22;4391;48.678;9.280;2024-01-10T14:43:43;0.80;99.90
8709;DHT22;4391;48.678;9.280;2024-01-10T14:46:10;0.70;99.90
8709;DHT22;4391;48.678;9.280;2024-01-10T14:48:37;0.60;99.90
8709;DHT22;4391;48.678;9.280;2024-01-10T14:51:04;0.60;99.90
8709;DHT22;4391;48.678;9.280;2024-01-10T14:56:47;0.40;99.90
8709;DHT22;4391;48.678;9.280;2024-01-10T14:59:14;0.30;99.90
8709;DHT22;4391;48.678;9.280;2024-01-10T15:01:44;0.30;99.90
8709;DHT22;4391;48.678;9.280;2024-01-10T15:04:11;0.20;99.90
8709;DHT22;4391;48.678;9.280;2024-01-10T15:06:43;0.10;99.90
8709;DHT22;4391;48.678;9.280;2024-01-10T15:09:10;0.10;99.90
8709;DHT22;4391;48.678;9.280;2024-01-10T15:11:38;0.00;99.90
8709;DHT22;4391;48.678;9.280;2024-01-10T15:14:07;-0.20;99.90
8709;DHT22;4391;48.678;9.280;2024-01-10T15:16:35;-0.40;99.90
8709;DHT22;4391;48.678;9.280;2024-01-10T15:19:02;-0.40;1.00
8709;DHT22;4391;48.678;9.280;2024-01-10T15:21:30;-0.60;1.00
8709;DHT22;4391;48.678;9.280;2024-01-10T15:23:57;-0.70;1.00
8709;DHT22;4391;48.678;9.280;2024-01-10T15:26:24;-0.80;1.00
8709;DHT22;4391;48.678;9.280;2024-01-10T15:28:53;-0.80;1.00
8709;DHT22;4391;48.678;9.280;2024-01-10T15:31:21;-0.90;1.00
8709;DHT22;4391;48.678;9.280;2024-01-10T15:33:47;-0.90;1.00
8709;DHT22;4391;48.678;9.280;2024-01-10T15:36:15;-1.00;1.00
8709;DHT22;4391;48.678;9.280;2024-01-10T15:38:42;-1.00;1.00
8709;DHT22;4391;48.678;9.280;2024-01-10T15:41:09;-1.10;99.90
8709;DHT22;4391;48.678;9.280;2024-01-10T15:43:37;-1.10;99.90
8709;DHT22;4391;48.678;9.280;2024-01-10T15:46:06;-1.20;99.90
8709;DHT22;4391;48.678;9.280;2024-01-10T15:48:34;-1.30;99.90
8709;DHT22;4391;48.678;9.280;2024-01-10T15:51:02;-1.30;91.70
8709;DHT22;4391;48.678;9.280;2024-01-10T15:53:29;-1.40;99.90
8709;DHT22;4391;48.678;9.280;2024-01-10T15:55:57;-1.50;99.90
8709;DHT22;4391;48.678;9.280;2024-01-10T15:58:24;-1.60;99.90
8709;DHT22;4391;48.678;9.280;2024-01-10T16:00:52;-1.70;99.90
8709;DHT22;4391;48.678;9.280;2024-01-10T16:03:19;-1.70;99.90
8709;DHT22;4391;48.678;9.280;2024-01-10T16:05:48;-1.80;1.00
8709;DHT22;4391;48.678;9.280;2024-01-10T16:08:17;-1.90;28.80
8709;DHT22;4391;48.678;9.280;2024-01-10T16:10:46;-2.00;1.00
8709;DHT22;4391;48.678;9.280;2024-01-10T16:13:13;-2.00;99.90
8709;DHT22;4391;48.678;9.280;2024-01-10T16:15:41;-2.10;99.90
8709;DHT22;4391;48.678;9.280;2024-01-10T16:18:07;-2.10;99.90
8709;DHT22;4391;48.678;9.280;2024-01-10T16:20:34;-2.10;1.00
8709;DHT22;4391;48.678;9.280;2024-01-10T16:23:04;-2.10;39.40
8709;DHT22;4391;48.678;9.280;2024-01-10T16:25:31;-2.10;1.00